Sindal Flyveplads, Denmark
Current Conditions -  °F | °C
As of 12:50 PM on Tuesday 21 Oct 2014 (Local Time) from EKYT Reporting Station
Broken Clouds Broken Clouds  
Wind Chill: 13°   Ceiling: 1000
Heat Index: 13°   Visibility: 6mi
Dew Point: 11°   Wind: 13mph
Humidity: 88%   Direction: 140°SE
Pressure: 29.44"   Gusts: NA
Location:  57.5°N, 10.22°E
Report Text: EKYT 211050Z 14011KT 9999 FEW006 BKN010 BKN090 13/11 Q0997
Loading
Personal Weather Stations






























Interactive Weather Map
Tropical Storm Tracking
New forecast layout! Learn more

10-Day Weather Forecast

Advertisements
Track Severe Weather on mobile